KPPA

Details ICAO KPPA
Name PERRY LEFORS FLD
Region United States
Timezone America/Chicago (UTC-5.0)
Plans Departing 3
Arriving 9
Stats Elevation 3,245 ft / 989 m (AMSL)
Location 35.612490° -100.997800°
Runways 3
Magnetic Variation 5.746° E
Sunrise 2018-05-24 11:34:33 UTC / 2018-05-24 06:34:33 Local
Sunset 2018-05-25 01:50:02 UTC / 2018-05-24 20:50:02 Local
Advertisement - Login to hide

Runways

ID Width Length Bearing (true) Bearing (mag) Surface Threshold Offset Overrun Length
05 75 ft / 23 m 4,496 ft / 1,370 m 59.93° 54.18° Asphalt 0 ft / 0 m 0 ft / 0 m
11 150 ft / 46 m 4,521 ft / 1,378 m 121.04° 115.29° Asphalt 0 ft / 0 m 0 ft / 0 m
17 100 ft / 30 m 5,879 ft / 1,792 m 180.02° 174.27° Asphalt 0 ft / 0 m 0 ft / 0 m
23 75 ft / 23 m 4,496 ft / 1,370 m 239.94° 234.19° Asphalt 0 ft / 0 m 0 ft / 0 m
29 150 ft / 46 m 4,521 ft / 1,378 m 301.05° 295.30° Asphalt 0 ft / 0 m 0 ft / 0 m
35 100 ft / 30 m 5,879 ft / 1,792 m 0.02° 354.27° Asphalt 0 ft / 0 m 0 ft / 0 m

Map

Weather


0- 5 10 15 20 25 30 35+ Temperature / ° C

Clouds and Precipitation
Forecast for 2018-05-24 12:00 UTC. Updated 3 hours ago

Ground ~20,000 ft ~40,000 ft Winds

METAR

KPPA 241415Z AUTO 19010KT 10SM CLR 21/15 A3013 RMK AO2 LTG DSNT S T02080149

TAF

Not found

Frequencies

Recorded 118.72 MHz AWOS 3
Unicom 122.70 MHz CTAF/UNICOM
Warning: Do not use this data for real-world aviation or navigation. No guarantee of current accuracy is given.